Time;durP1;ratioP1;P1;durP2;ratioP2;P2;SDS_P1;SDS_P2;PMS_P1;PMS_P2;Temp;Humidity;BMP_temperature;BMP_pressure;BME280_temperature;BME280_humidity;BME280_pressure;Samples;Min_cycle;Max_cycle;Signal;HPM_P1;HPM_P2
2022/06/19 00:01:03;;;;;;;6.00;2.60;;;;;;;17.18;52.14;99004.47;5073885;28;20138;-68
2022/06/19 00:03:34;;;;;;;6.68;2.60;;;;;;;17.18;52.08;98988.44;5073200;28;20147;-69
2022/06/19 00:06:02;;;;;;;5.82;2.40;;;;;;;17.16;52.20;98984.38;5074440;28;20093;-68
2022/06/19 00:08:30;;;;;;;3.88;2.25;;;;;;;17.19;52.28;98989.22;5074554;28;20053;-68
2022/06/19 00:10:59;;;;;;;4.95;2.40;;;;;;;17.18;52.54;98982.81;5075321;28;20054;-72
2022/06/19 00:13:26;;;;;;;9.95;2.80;;;;;;;17.20;52.34;98983.19;5074605;28;20075;-68
2022/06/19 00:15:53;;;;;;;8.68;2.38;;;;;;;17.30;52.38;98978.88;5074455;28;20060;-71
2022/06/19 00:18:21;;;;;;;4.25;2.70;;;;;;;17.30;52.30;98968.44;5074445;28;20052;-71
2022/06/19 00:20:48;;;;;;;6.20;2.60;;;;;;;17.32;52.17;98971.63;5074271;28;20102;-69
2022/06/19 00:23:15;;;;;;;6.43;2.65;;;;;;;17.33;52.02;98969.66;5072966;28;20482;-69
2022/06/19 00:25:42;;;;;;;4.57;2.55;;;;;;;17.32;52.02;98968.03;5074062;28;20140;-72
2022/06/19 00:28:08;;;;;;;4.32;2.60;;;;;;;17.34;51.80;98968.44;5074048;28;20049;-71
2022/06/19 00:30:36;;;;;;;4.03;2.45;;;;;;;17.38;51.58;98964.44;5073206;28;20507;-71
2022/06/19 00:33:03;;;;;;;4.75;2.00;;;;;;;17.45;51.75;98955.28;5073925;28;20060;-71
2022/06/19 00:35:30;;;;;;;3.33;1.88;;;;;;;17.49;51.68;98958.94;5074046;28;20578;-70
2022/06/19 00:37:58;;;;;;;4.05;2.00;;;;;;;17.51;51.29;98957.34;5072418;28;20079;-68
2022/06/19 00:40:28;;;;;;;4.97;2.10;;;;;;;17.51;51.28;98962.16;5074178;28;20140;-69
2022/06/19 00:42:55;;;;;;;3.20;2.13;;;;;;;17.49;51.21;98965.38;5073506;28;20143;-69
2022/06/19 00:45:34;;;;;;;3.30;1.75;;;;;;;17.54;51.14;98967.00;5074118;28;20415;-68
2022/06/19 00:48:05;;;;;;;8.50;2.20;;;;;;;17.51;50.85;98956.53;5085115;28;20548;-69
2022/06/19 00:50:34;;;;;;;4.03;2.25;;;;;;;17.53;50.72;98965.41;5094282;28;20055;-69
2022/06/19 00:53:04;;;;;;;3.85;2.00;;;;;;;17.52;50.71;98963.75;5093890;28;20477;-69
2022/06/19 00:55:38;;;;;;;3.17;2.17;;;;;;;17.54;50.46;98958.56;5093882;28;20048;-69
2022/06/19 00:58:15;;;;;;;8.50;2.00;;;;;;;17.56;50.52;98959.00;5087155;28;20571;-68
2022/06/19 01:00:45;;;;;;;4.50;2.30;;;;;;;17.54;50.15;98948.13;5072732;28;20582;-70
2022/06/19 01:03:19;;;;;;;5.47;2.08;;;;;;;17.58;50.19;98950.94;5073440;28;20052;-69
2022/06/19 01:05:48;;;;;;;4.03;2.17;;;;;;;17.57;50.47;98952.97;5073441;28;20048;-69
2022/06/19 01:08:15;;;;;;;4.68;2.00;;;;;;;17.59;50.46;98952.56;5073637;28;20056;-70
2022/06/19 01:10:45;;;;;;;3.90;2.10;;;;;;;17.61;50.12;98950.16;5073355;28;20059;-69
2022/06/19 01:13:16;;;;;;;3.67;1.88;;;;;;;17.64;49.90;98938.13;5073323;28;20048;-69
2022/06/19 01:15:43;;;;;;;6.95;2.05;;;;;;;17.69;50.07;98940.56;5073600;28;20114;-74
2022/06/19 01:18:12;;;;;;;3.85;1.98;;;;;;;17.69;50.11;98929.31;5073118;28;20135;-68
2022/06/19 01:20:41;;;;;;;3.08;1.90;;;;;;;17.74;49.98;98934.56;5073489;28;20060;-69
2022/06/19 01:23:30;;;;;;;2.80;1.73;;;;;;;17.77;50.14;98926.13;5072880;28;20428;-68
2022/06/19 01:25:57;;;;;;;3.00;1.67;;;;;;;17.77;49.85;98933.78;5073068;28;20289;-75
2022/06/19 01:31:21;;;;;;;1.98;1.33;;;;;;;17.73;49.61;98941.38;5073286;28;20389;-74
2022/06/19 01:33:52;;;;;;;3.03;1.73;;;;;;;17.69;49.78;98934.94;5072737;28;20048;-74
2022/06/19 01:36:21;;;;;;;12.13;1.80;;;;;;;17.67;49.62;98931.69;5073008;28;20099;-77
2022/06/19 01:38:53;;;;;;;4.43;1.50;;;;;;;17.72;49.63;98931.34;5093256;28;20498;-74
2022/06/19 01:41:27;;;;;;;4.57;1.70;;;;;;;17.77;49.42;98933.78;5093176;28;20059;-73
2022/06/19 01:43:54;;;;;;;5.95;1.80;;;;;;;17.79;49.44;98932.16;5091646;28;20055;-74
2022/06/19 01:46:23;;;;;;;3.00;1.80;;;;;;;17.79;49.34;98936.97;5093083;28;20058;-74
2022/06/19 01:48:52;;;;;;;2.88;1.83;;;;;;;17.79;49.27;98934.16;5093355;28;20047;-68
2022/06/19 01:51:19;;;;;;;4.18;1.70;;;;;;;17.82;49.26;98925.75;5092996;28;20052;-68
2022/06/19 01:53:52;;;;;;;5.53;1.73;;;;;;;17.87;49.20;98925.38;5093061;28;20063;-68
2022/06/19 01:56:20;;;;;;;3.30;1.65;;;;;;;17.86;49.05;98928.59;5092922;28;20054;-68
2022/06/19 01:58:49;;;;;;;6.03;2.60;;;;;;;17.88;48.99;98917.72;5080622;28;20063;-69
2022/06/19 02:01:16;;;;;;;5.07;1.83;;;;;;;17.85;49.01;98918.53;5072650;28;20056;-68
2022/06/19 02:03:47;;;;;;;4.45;1.77;;;;;;;17.91;49.19;98911.31;5071237;28;20052;-68
2022/06/19 02:06:18;;;;;;;6.90;1.60;;;;;;;17.91;49.19;98914.13;5072382;28;20048;-68
2022/06/19 02:08:47;;;;;;;2.22;1.40;;;;;;;17.91;49.02;98916.94;5072946;28;20046;-68
2022/06/19 02:11:16;;;;;;;6.65;1.75;;;;;;;17.91;49.04;98914.13;5072520;28;20098;-68
2022/06/19 02:13:44;;;;;;;2.90;1.73;;;;;;;17.91;49.01;98902.88;5072539;28;20090;-68
2022/06/19 02:16:17;;;;;;;4.93;1.77;;;;;;;17.91;48.82;98908.50;5072716;28;20151;-74
2022/06/19 02:18:47;;;;;;;3.00;1.85;;;;;;;17.92;48.83;98898.88;5072778;28;20083;-70
2022/06/19 02:21:32;;;;;;;4.30;1.70;;;;;;;17.94;48.76;98896.44;5072490;28;20131;-68
2022/06/19 02:23:59;;;;;;;8.35;2.05;;;;;;;17.93;48.52;98909.72;5072442;28;20094;-68
2022/06/19 02:26:26;;;;;;;5.90;1.92;;;;;;;17.98;48.67;98902.91;5078132;28;20044;-67
2022/06/19 02:28:53;;;;;;;3.05;2.08;;;;;;;18.01;48.68;98902.13;5092487;28;20086;-68
2022/06/19 02:31:20;;;;;;;4.63;1.95;;;;;;;17.99;48.71;98899.69;5092586;28;20048;-69
2022/06/19 02:33:56;;;;;;;2.40;1.45;;;;;;;18.02;48.50;98896.09;5091104;28;20056;-68
2022/06/19 02:36:37;;;;;;;5.78;1.75;;;;;;;17.95;48.55;98893.22;5092769;28;20143;-68
2022/06/19 02:39:34;;;;;;;2.13;1.30;;;;;;;17.93;48.73;98889.22;5092921;28;20048;-68
2022/06/19 02:42:19;;;;;;;3.08;1.75;;;;;;;17.92;48.80;98894.03;5092639;28;20058;-67
2022/06/19 02:44:50;;;;;;;7.70;2.30;;;;;;;17.96;48.78;98894.03;5092519;28;20052;-68
2022/06/19 02:47:17;;;;;;;2.60;1.58;;;;;;;18.00;48.69;98883.63;5092628;28;20138;-68
2022/06/19 02:49:45;;;;;;;2.80;1.60;;;;;;;18.02;48.71;98886.81;5092451;28;20052;-68
2022/06/19 02:52:12;;;;;;;6.03;1.70;;;;;;;18.09;48.33;98881.25;5092274;28;20040;-68
2022/06/19 02:54:40;;;;;;;2.50;1.67;;;;;;;18.07;48.39;98872.38;5094780;28;20071;-71
2022/06/19 02:57:09;;;;;;;2.25;1.50;;;;;;;18.07;48.50;98864.75;5094704;28;20541;-68
2022/06/19 02:59:36;;;;;;;2.88;1.67;;;;;;;18.10;48.41;98866.75;5076672;28;20075;-68
2022/06/19 03:02:04;;;;;;;2.80;1.75;;;;;;;18.14;48.76;98867.56;5075554;28;20056;-69
2022/06/19 03:04:36;;;;;;;2.50;1.55;;;;;;;18.22;48.72;98874.00;5076106;28;20052;-69
2022/06/19 03:07:03;;;;;;;6.13;1.48;;;;;;;18.30;48.30;98874.84;5075247;28;20055;-69
2022/06/19 03:09:30;;;;;;;3.10;1.70;;;;;;;18.32;48.42;98873.22;5075420;28;20055;-75
2022/06/19 03:11:57;;;;;;;9.77;2.13;;;;;;;18.32;48.44;98876.03;5075493;28;20075;-75
2022/06/19 03:14:25;;;;;;;9.95;1.50;;;;;;;18.35;48.41;98866.00;5075801;28;20056;-69
2022/06/19 03:16:52;;;;;;;6.50;1.90;;;;;;;18.44;48.26;98858.78;5075597;28;20052;-69
2022/06/19 03:19:19;;;;;;;2.88;1.52;;;;;;;18.46;48.15;98859.19;5075562;28;20098;-69
2022/06/19 03:21:49;;;;;;;2.63;1.67;;;;;;;18.64;47.80;98854.38;5075620;28;20048;-72
2022/06/19 03:24:16;;;;;;;;;;;;;;;18.70;47.86;98847.13;5075578;28;20048;-72
2022/06/19 03:26:43;;;;;;;5.07;1.50;;;;;;;18.87;47.52;98851.13;5075449;28;20391;-72
2022/06/19 03:29:10;;;;;;;2.90;1.70;;;;;;;18.93;47.25;98841.06;5075329;28;20127;-74
2022/06/19 03:31:37;;;;;;;2.42;1.67;;;;;;;18.94;47.26;98837.84;5075470;28;20059;-74
2022/06/19 03:34:04;;;;;;;3.90;1.48;;;;;;;18.92;47.55;98833.81;5074146;28;20054;-74
2022/06/19 03:36:31;;;;;;;9.32;1.70;;;;;;;18.91;47.43;98838.63;5075272;28;20091;-74
2022/06/19 03:38:58;;;;;;;4.22;1.50;;;;;;;18.88;47.57;98828.19;5074879;28;20047;-74
2022/06/19 03:41:25;;;;;;;4.20;1.60;;;;;;;18.91;47.54;98824.53;5075027;28;20068;-73
2022/06/19 03:43:52;;;;;;;3.90;1.63;;;;;;;19.00;47.27;98838.22;5075098;28;20052;-74
2022/06/19 03:46:20;;;;;;;3.38;1.35;;;;;;;19.07;46.79;98830.53;5074994;28;20045;-73
2022/06/19 03:48:50;;;;;;;2.60;1.63;;;;;;;19.20;46.70;98830.94;5092059;28;20111;-74
2022/06/19 03:51:22;;;;;;;2.95;1.60;;;;;;;19.26;46.61;98824.47;5094915;28;20481;-73
2022/06/19 03:53:51;;;;;;;4.90;1.63;;;;;;;19.28;46.55;98830.56;5094843;28;20052;-74
2022/06/19 03:56:44;;;;;;;6.50;1.55;;;;;;;19.21;46.48;98815.59;5095034;28;20541;-74
2022/06/19 03:59:12;;;;;;;2.03;1.40;;;;;;;19.21;46.60;98813.59;5078738;28;20419;-76
2022/06/19 04:01:40;;;;;;;5.25;1.58;;;;;;;19.39;46.23;98814.38;5074836;28;20052;-74
2022/06/19 04:04:09;;;;;;;3.92;1.60;;;;;;;19.58;45.99;98810.28;5074666;28;20054;-78
2022/06/19 04:06:40;;;;;;;10.73;1.60;;;;;;;19.69;45.83;98800.53;5074656;28;20053;-78
2022/06/19 04:09:10;;;;;;;5.65;1.67;;;;;;;19.75;45.64;98801.72;5074554;28;20554;-75
2022/06/19 04:11:38;;;;;;;11.98;1.90;;;;;;;19.77;45.86;98798.47;5074488;28;20534;-74
2022/06/19 04:14:05;;;;;;;4.70;1.50;;;;;;;19.81;45.53;98802.88;5074772;28;20107;-74
2022/06/19 04:16:33;;;;;;;6.55;1.75;;;;;;;19.79;45.34;98804.53;5074447;28;20075;-75
2022/06/19 04:19:03;;;;;;;3.38;1.52;;;;;;;19.75;45.47;98793.25;5074483;28;20048;-74
2022/06/19 04:21:32;;;;;;;3.92;1.73;;;;;;;19.80;45.41;98790.00;5074062;28;20454;-74
2022/06/19 04:24:03;;;;;;;4.18;1.52;;;;;;;19.82;45.42;98798.06;5073117;28;20052;-74
2022/06/19 04:26:34;;;;;;;3.20;1.48;;;;;;;19.85;45.26;98797.22;5072738;28;20419;-74
2022/06/19 04:29:01;;;;;;;2.70;1.40;;;;;;;19.95;45.07;98793.53;5073399;28;20050;-75
2022/06/19 04:31:28;;;;;;;5.85;1.77;;;;;;;20.09;44.87;98799.09;5074172;28;20044;-70
2022/06/19 04:33:56;;;;;;;4.95;1.58;;;;;;;20.23;44.82;98799.03;5074192;28;20074;-70
2022/06/19 04:36:24;;;;;;;3.15;1.63;;;;;;;20.33;44.75;98805.78;5073965;28;20044;-70
2022/06/19 04:38:54;;;;;;;2.15;1.40;;;;;;;20.41;44.44;98794.03;5073767;28;20082;-70
2022/06/19 04:41:36;;;;;;;4.63;1.80;;;;;;;20.48;44.51;98795.97;5073951;28;20048;-70
2022/06/19 04:44:05;;;;;;;3.63;1.77;;;;;;;20.41;44.52;98796.06;5073814;28;20059;-76
2022/06/19 04:46:32;;;;;;;4.88;1.48;;;;;;;20.50;44.63;98800.03;5073599;28;20055;-75
2022/06/19 04:49:00;;;;;;;3.83;1.60;;;;;;;20.46;44.29;98787.13;5073639;28;20491;-75
2022/06/19 04:51:27;;;;;;;5.72;1.70;;;;;;;20.54;44.28;98783.81;5073321;28;20058;-76
2022/06/19 04:53:54;;;;;;;2.53;1.50;;;;;;;20.70;43.94;98780.47;5072560;28;20044;-74
2022/06/19 04:56:22;;;;;;;5.93;1.60;;;;;;;20.81;43.86;98776.28;5073362;28;20123;-73
2022/06/19 04:58:50;;;;;;;4.30;1.70;;;;;;;20.95;43.70;98781.03;5074413;28;20136;-75
2022/06/19 05:01:25;;;;;;;2.33;1.63;;;;;;;21.49;42.80;98771.50;5072080;28;20052;-74
2022/06/19 05:03:54;;;;;;;6.63;1.65;;;;;;;21.86;41.73;98767.81;5073842;28;20052;-74
2022/06/19 05:06:22;;;;;;;3.53;1.65;;;;;;;21.94;41.87;98764.47;5072999;28;20105;-74
2022/06/19 05:08:49;;;;;;;2.60;1.60;;;;;;;22.22;41.49;98766.03;5073050;28;20048;-77
2022/06/19 05:11:17;;;;;;;4.80;1.60;;;;;;;22.21;41.50;98759.59;5073424;28;20048;-74
2022/06/19 05:13:44;;;;;;;3.40;1.77;;;;;;;22.33;41.34;98758.97;5073098;28;20095;-74
2022/06/19 05:16:21;;;;;;;5.32;1.45;;;;;;;22.49;40.87;98756.25;5072896;28;20058;-75
2022/06/19 05:18:50;;;;;;;5.10;1.50;;;;;;;22.32;40.88;98757.34;5072121;28;20054;-75
2022/06/19 05:21:22;;;;;;;4.32;1.45;;;;;;;22.19;41.32;98764.06;5071837;28;20044;-75
2022/06/19 05:23:50;;;;;;;6.07;1.70;;;;;;;22.12;41.45;98762.16;5073144;28;20048;-74
2022/06/19 05:26:26;;;;;;;5.50;1.67;;;;;;;22.53;41.16;98773.25;5073025;28;20048;-74
2022/06/19 05:28:54;;;;;;;6.55;1.70;;;;;;;22.83;40.60;98770.28;5073375;28;20150;-74
2022/06/19 05:31:22;;;;;;;5.40;1.50;;;;;;;22.79;40.61;98776.00;5072861;28;20118;-74
2022/06/19 05:33:49;;;;;;;3.90;1.45;;;;;;;22.54;41.09;98770.00;5073116;28;20121;-73
2022/06/19 05:36:18;;;;;;;4.25;1.45;;;;;;;22.44;41.06;98765.25;5073836;28;20056;-75
2022/06/19 05:38:45;;;;;;;3.53;1.55;;;;;;;22.62;40.88;98762.94;5093201;28;20402;-75
2022/06/19 05:41:12;;;;;;;4.85;1.67;;;;;;;22.85;40.58;98764.97;5093377;28;20062;-75
2022/06/19 05:43:40;;;;;;;7.55;2.00;;;;;;;22.94;40.61;98760.34;5093117;28;20055;-75
2022/06/19 05:46:14;;;;;;;6.25;1.75;;;;;;;22.93;40.94;98766.44;5093043;28;20047;-75
2022/06/19 05:48:41;;;;;;;3.08;1.80;;;;;;;22.80;40.96;98754.13;5076869;28;20047;-78
2022/06/19 05:51:15;;;;;;;6.55;1.50;;;;;;;23.00;40.67;98750.09;5073502;28;20045;-75
2022/06/19 05:53:48;;;;;;;2.30;1.40;;;;;;;23.25;40.55;98747.59;5072789;28;20135;-74
2022/06/19 05:56:16;;;;;;;2.40;1.40;;;;;;;23.16;40.56;98744.53;5071254;28;20422;-71
2022/06/19 05:58:43;;;;;;;4.18;1.67;;;;;;;23.04;40.87;98747.97;5073105;28;20051;-73
2022/06/19 06:01:12;;;;;;;4.78;1.77;;;;;;;23.22;40.55;98751.28;5072665;28;20452;-77
2022/06/19 06:03:41;;;;;;;5.00;1.77;;;;;;;23.42;40.71;98742.78;5072753;28;20067;-72
2022/06/19 06:06:13;;;;;;;;;;;;;;;23.49;40.46;98741.81;5073198;28;20052;-71
2022/06/19 06:08:40;;;;;;;4.38;1.30;;;;;;;24.00;40.09;98747.59;5072358;28;20018;-71
2022/06/19 06:11:07;;;;;;;3.00;1.40;;;;;;;24.59;38.66;98738.81;5072254;28;20048;-75
2022/06/19 06:13:36;;;;;;;2.85;1.50;;;;;;;25.88;36.72;98730.69;5072688;28;20632;-72
2022/06/19 06:16:04;;;;;;;3.90;1.50;;;;;;;27.46;33.67;98739.56;5071406;28;20495;-74
2022/06/19 06:18:31;;;;;;;3.13;1.27;;;;;;;27.70;32.79;98740.66;5072890;28;20123;-75
2022/06/19 06:21:20;;;;;;;3.55;1.50;;;;;;;27.55;32.64;98731.03;5072415;28;20465;-70
2022/06/19 06:23:47;;;;;;;4.05;1.50;;;;;;;27.55;32.46;98731.03;5072964;28;20056;-71
2022/06/19 06:26:29;;;;;;;3.03;1.50;;;;;;;27.16;32.97;98721.06;5079396;28;20394;-71
2022/06/19 06:28:58;;;;;;;4.00;1.60;;;;;;;26.48;33.88;98712.44;5094267;28;20130;-71
2022/06/19 06:31:26;;;;;;;2.92;1.50;;;;;;;25.86;34.89;98719.75;5092705;28;20048;-72
2022/06/19 06:33:56;;;;;;;2.85;1.20;;;;;;;25.50;35.52;98713.53;5076406;28;20061;-71
2022/06/19 06:36:23;;;;;;;4.57;1.65;;;;;;;25.20;36.08;98705.47;5076297;28;20087;-70
2022/06/19 06:38:50;;;;;;;5.28;2.30;;;;;;;25.27;35.66;98710.94;5076017;28;20078;-71
2022/06/19 06:41:17;;;;;;;3.38;1.30;;;;;;;25.59;35.16;98710.84;5076216;28;20131;-71
2022/06/19 06:43:46;;;;;;;5.97;1.70;;;;;;;25.27;35.64;98710.94;5076016;28;20047;-71
2022/06/19 06:46:18;;;;;;;6.03;1.50;;;;;;;24.81;36.61;98705.75;5075961;28;20051;-71
2022/06/19 06:48:47;;;;;;;4.68;1.48;;;;;;;24.44;37.31;98712.00;5075846;28;20102;-71
2022/06/19 06:51:17;;;;;;;7.28;1.60;;;;;;;23.93;38.42;98698.63;5075795;28;20052;-70
2022/06/19 06:53:44;;;;;;;12.35;1.38;;;;;;;23.44;39.05;98699.78;5076282;28;20131;-71
2022/06/19 06:56:11;;;;;;;3.13;1.35;;;;;;;23.20;39.70;98693.34;5075946;28;20131;-75
2022/06/19 06:58:39;;;;;;;1.60;1.20;;;;;;;23.13;39.83;98708.50;5076108;28;20135;-72
2022/06/19 07:01:18;;;;;;;3.08;1.20;;;;;;;23.63;39.13;98708.25;5076151;28;20048;-73
2022/06/19 07:03:49;;;;;;;2.72;1.17;;;;;;;23.60;39.04;98699.81;5075884;28;20547;-73
2022/06/19 07:06:16;;;;;;;2.17;1.42;;;;;;;23.42;39.93;98702.25;5075551;28;20139;-76
2022/06/19 07:08:43;;;;;;;2.60;1.65;;;;;;;23.14;40.68;98680.91;5075668;28;20143;-72
2022/06/19 07:11:17;;;;;;;4.43;1.77;;;;;;;23.00;40.77;98667.81;5075647;28;20057;-72
2022/06/19 07:13:44;;;;;;;2.42;1.30;;;;;;;22.97;40.96;98671.53;5075923;28;20461;-72
2022/06/19 07:16:11;;;;;;;6.07;1.50;;;;;;;23.09;40.52;98676.53;5087275;28;20166;-73
2022/06/19 07:18:39;;;;;;;4.07;1.50;;;;;;;25.72;35.91;98663.19;5095610;28;20481;-73
2022/06/19 07:21:06;;;;;;;4.07;1.40;;;;;;;29.50;30.22;98658.13;5095959;28;20253;-73
2022/06/19 07:23:33;;;;;;;3.22;1.40;;;;;;;31.25;27.74;98664.81;5075963;28;20051;-73
2022/06/19 07:26:00;;;;;;;2.35;1.20;;;;;;;29.78;29.29;98667.47;5075127;28;20135;-73
2022/06/19 07:28:28;;;;;;;8.75;1.10;;;;;;;27.67;31.99;98675.84;5075381;28;20480;-73
2022/06/19 07:30:55;;;;;;;3.70;1.40;;;;;;;26.15;35.97;98672.00;5075434;28;20048;-72
2022/06/19 07:33:22;;;;;;;3.95;1.20;;;;;;;24.89;38.84;98670.16;5057198;28;20519;-76
2022/06/19 07:35:49;;;;;;;4.85;1.35;;;;;;;24.19;39.96;98657.81;5075283;28;20069;-72
2022/06/19 07:38:17;;;;;;;5.28;1.30;;;;;;;23.79;41.88;98654.31;5075088;28;20414;-73
2022/06/19 07:40:44;;;;;;;2.55;1.20;;;;;;;23.66;42.03;98639.22;5073184;28;20139;-77
2022/06/19 07:43:14;;;;;;;2.35;1.40;;;;;;;23.39;42.09;98633.75;5074035;28;20098;-73
2022/06/19 07:45:41;;;;;;;2.08;1.33;;;;;;;23.18;42.26;98648.38;5075400;28;20052;-74
2022/06/19 07:50:56;;;;;;;3.30;1.15;;;;;;;22.81;42.23;98645.94;5074880;28;20044;-74
2022/06/19 07:53:23;;;;;;;3.22;1.30;;;;;;;23.02;42.04;98648.31;5074732;28;20415;-73
2022/06/19 07:55:50;;;;;;;6.15;2.70;;;;;;;23.83;40.97;98646.50;5074968;28;20070;-72
2022/06/19 07:58:17;;;;;;;4.22;1.70;;;;;;;23.96;40.45;98647.44;5074692;28;20512;-77
2022/06/19 08:00:44;;;;;;;3.70;1.30;;;;;;;24.20;40.10;98637.47;5074918;28;20068;-74
2022/06/19 08:03:11;;;;;;;2.40;1.40;;;;;;;24.76;39.14;98644.53;5074345;28;20048;-74
2022/06/19 08:05:39;;;;;;;2.78;1.33;;;;;;;25.39;37.52;98644.72;5074668;28;20048;-74
2022/06/19 08:08:14;;;;;;;4.05;1.40;;;;;;;26.08;36.34;98646.56;5074195;28;20068;-74
2022/06/19 08:10:43;;;;;;;2.15;1.70;;;;;;;26.39;36.17;98638.19;5074566;28;20048;-74
2022/06/19 08:13:14;;;;;;;6.78;1.50;;;;;;;26.74;35.31;98625.56;5074418;28;20052;-75
2022/06/19 08:15:41;;;;;;;3.35;1.70;;;;;;;29.69;31.33;98636.75;5074621;28;20048;-76
2022/06/19 08:18:09;;;;;;;93.40;36.53;;;;;;;32.33;27.12;98623.31;5074143;28;20410;-75
2022/06/19 08:20:36;;;;;;;3.25;1.70;;;;;;;35.64;22.48;98620.25;5074384;28;20148;-76
2022/06/19 08:23:05;;;;;;;2.97;1.83;;;;;;;37.47;20.77;98614.84;5074112;28;20052;-75
2022/06/19 08:25:32;;;;;;;3.28;1.50;;;;;;;38.67;19.02;98620.13;5072846;28;20060;-76
2022/06/19 08:28:00;;;;;;;3.83;1.13;;;;;;;40.14;17.96;98611.97;5073928;28;20059;-76
2022/06/19 08:30:31;;;;;;;2.77;1.43;;;;;;;42.12;15.66;98595.97;5074198;28;20136;-75
2022/06/19 08:33:05;;;;;;;2.65;1.52;;;;;;;43.33;14.99;98614.41;5073863;28;20321;-75
2022/06/19 08:35:37;;;;;;;5.15;1.40;;;;;;;44.48;13.97;98595.09;5073782;28;20058;-75
2022/06/19 08:38:09;;;;;;;5.00;1.50;;;;;;;45.42;12.44;98595.31;5089445;28;20119;-75
2022/06/19 08:40:54;;;;;;;4.78;1.35;;;;;;;43.77;13.66;98578.59;5094355;28;20077;-75
2022/06/19 08:43:37;;;;;;;5.35;1.40;;;;;;;46.09;12.26;98573.50;5094039;28;20075;-75
2022/06/19 08:46:07;;;;;;;4.68;1.52;;;;;;;47.37;10.94;98581.09;5094082;28;20044;-74
2022/06/19 08:49:05;;;;;;;2.17;1.40;;;;;;;48.90;10.63;98570.78;5078734;28;20463;-74
2022/06/19 08:51:35;;;;;;;2.88;1.65;;;;;;;49.59;9.97;98581.94;5072962;28;20056;-75
2022/06/19 08:54:10;;;;;;;3.00;1.40;;;;;;;49.77;9.35;98565.59;5073823;28;20041;-72
2022/06/19 08:57:10;;;;;;;6.07;1.52;;;;;;;47.04;10.94;98564.19;5073397;28;20143;-74
2022/06/19 08:59:40;;;;;;;3.70;2.00;;;;;;;47.36;10.68;98564.00;5070832;28;20061;-73
2022/06/19 09:02:27;;;;;;;4.82;1.75;;;;;;;48.13;10.06;98563.09;5073936;28;20554;-75
2022/06/19 09:05:38;;;;;;;9.32;3.00;;;;;;;48.88;9.30;98549.91;5061835;28;20086;-73
2022/06/19 09:08:25;;;;;;;6.78;1.55;;;;;;;48.56;9.71;98546.56;5072971;28;20083;-73
2022/06/19 09:11:23;;;;;;;4.97;1.30;;;;;;;47.37;10.36;98527.25;5073350;28;20040;-73
2022/06/19 09:13:58;;;;;;;8.27;1.63;;;;;;;47.70;10.19;98549.19;5073341;28;20554;-73
2022/06/19 09:16:39;;;;;;;4.80;1.35;;;;;;;46.96;10.55;98531.09;5073026;28;20048;-73
2022/06/19 09:19:25;;;;;;;2.40;1.30;;;;;;;44.10;12.30;98535.69;5073485;28;20409;-73
2022/06/19 09:22:04;;;;;;;4.30;1.30;;;;;;;39.73;15.89;98525.75;5073589;28;20048;-73
2022/06/19 09:24:48;;;;;;;9.18;1.10;;;;;;;36.15;18.65;98514.69;5071548;28;20152;-71
2022/06/19 09:27:16;;;;;;;3.10;1.40;;;;;;;33.87;21.51;98519.66;5087738;28;20134;-71
2022/06/19 09:29:57;;;;;;;5.85;2.20;;;;;;;32.07;23.26;98506.47;5092405;28;20066;-71
2022/06/19 09:32:49;;;;;;;3.60;1.50;;;;;;;30.87;24.97;98509.72;5093192;28;20426;-72
2022/06/19 09:35:51;;;;;;;3.75;1.48;;;;;;;30.48;25.55;98499.53;5093159;28;20043;-71
2022/06/19 09:38:24;;;;;;;5.53;1.50;;;;;;;30.14;25.75;98490.19;5092965;28;20545;-76
2022/06/19 09:40:55;;;;;;;105.50;53.65;;;;;;;29.67;27.08;98481.63;5092896;28;20048;-75
2022/06/19 09:43:38;;;;;;;5.13;2.28;;;;;;;29.97;27.05;98471.88;5093491;28;20052;-72
2022/06/19 09:46:10;;;;;;;3.85;1.48;;;;;;;30.24;26.47;98470.06;5093260;28;20470;-72
2022/06/19 09:48:37;;;;;;;6.32;1.80;;;;;;;29.53;27.20;98467.97;5077534;28;20172;-71
2022/06/19 09:51:22;;;;;;;5.32;1.60;;;;;;;28.67;28.60;98460.31;5072658;28;20404;-75
2022/06/19 09:54:14;;;;;;;10.23;1.90;;;;;;;28.43;28.94;98447.91;5072005;28;20071;-77
2022/06/19 09:56:50;;;;;;;2.55;1.35;;;;;;;28.62;28.65;98443.00;5072691;28;20059;-73
2022/06/19 09:59:24;;;;;;;10.07;1.73;;;;;;;28.89;28.69;98446.56;5072631;28;20500;-75
2022/06/19 10:02:02;;;;;;;1.95;1.40;;;;;;;28.66;28.89;98441.56;5072886;28;20063;-72
2022/06/19 10:04:40;;;;;;;8.70;1.70;;;;;;;28.78;28.94;98440.56;5072941;28;20125;-73
2022/06/19 10:07:35;;;;;;;9.38;1.90;;;;;;;28.64;29.21;98432.66;5072130;28;20067;-77
2022/06/19 10:10:27;;;;;;;5.75;1.67;;;;;;;28.01;29.91;98424.88;5072034;28;20052;-76
2022/06/19 10:12:58;;;;;;;7.22;2.08;;;;;;;27.75;30.38;98415.03;5072584;28;20055;-72
2022/06/19 10:15:36;;;;;;;4.00;1.70;;;;;;;27.80;30.31;98422.16;5074447;28;20048;-71
2022/06/19 10:18:34;;;;;;;2.50;1.52;;;;;;;27.87;30.45;98410.44;5092757;28;20182;-72
2022/06/19 10:24:22;;;;;;;5.00;1.67;;;;;;;27.73;30.59;98394.69;5092664;28;20451;-73
2022/06/19 10:27:24;;;;;;;8.07;2.10;;;;;;;27.83;30.58;98392.63;5092298;28;20060;-72
2022/06/19 10:30:00;;;;;;;4.22;1.67;;;;;;;27.68;31.25;98388.81;5080163;28;20052;-72
2022/06/19 10:32:53;;;;;;;2.70;1.70;;;;;;;27.62;31.46;98397.22;5087769;28;20059;-72
2022/06/19 10:35:42;;;;;;;7.22;1.42;;;;;;;27.55;31.59;98379.56;5072694;28;20082;-70
2022/06/19 10:38:19;;;;;;;4.93;1.90;;;;;;;27.48;31.90;98371.31;5072129;28;20059;-71
2022/06/19 10:42:00;;;;;;;2.75;1.95;;;;;;;27.43;31.73;98352.75;5072086;28;20055;-72
2022/06/19 10:44:16;;;;;;;5.90;1.80;;;;;;;27.22;32.44;98341.41;5072310;28;20084;-71
2022/06/19 10:46:51;;;;;;;6.63;1.88;;;;;;;27.12;32.39;98331.25;5072359;28;20140;-71
2022/06/19 10:49:49;;;;;;;4.13;1.83;;;;;;;27.17;32.60;98350.63;5070843;28;20052;-73
2022/06/19 10:52:19;;;;;;;3.17;1.85;;;;;;;26.97;32.96;98335.97;5072457;28;20491;-73
2022/06/19 10:55:08;;;;;;;5.80;1.90;;;;;;;26.72;33.65;98354.09;5071911;28;20131;-72
2022/06/19 10:57:57;;;;;;;13.15;3.33;;;;;;;26.44;34.07;98346.66;5071875;28;20048;-72
2022/06/19 11:00:24;;;;;;;7.90;1.80;;;;;;;26.52;34.16;98345.09;5071978;28;20075;-70
2022/06/19 11:05:54;;;;;;;4.20;1.92;;;;;;;26.72;33.77;98342.69;5072172;28;20133;-74
2022/06/19 11:08:25;;;;;;;9.05;1.70;;;;;;;26.42;34.60;98341.44;5071721;28;20501;-74
2022/06/19 11:10:58;;;;;;;8.20;2.40;;;;;;;26.14;34.91;98338.91;5070928;28;20449;-70
2022/06/19 11:13:56;;;;;;;10.57;2.17;;;;;;;25.83;35.46;98332.31;5072273;28;20121;-69
2022/06/19 11:16:23;;;;;;;5.57;1.90;;;;;;;25.61;36.29;98343.69;5075574;28;20097;-72
2022/06/19 11:18:53;;;;;;;8.02;3.35;;;;;;;25.49;36.29;98353.06;5075387;28;20052;-70
2022/06/19 11:21:25;;;;;;;10.10;2.70;;;;;;;25.43;36.87;98363.44;5075750;28;20582;-71
2022/06/19 11:23:56;;;;;;;13.88;2.08;;;;;;;25.30;36.78;98354.13;5075387;28;20072;-75
2022/06/19 11:26:42;;;;;;;11.20;1.90;;;;;;;25.37;36.72;98356.75;5075372;28;20131;-70
2022/06/19 11:29:15;;;;;;;5.60;2.10;;;;;;;25.33;37.03;98347.53;5075413;28;20052;-69
2022/06/19 11:32:01;;;;;;;5.38;2.05;;;;;;;25.43;37.07;98334.97;5075253;28;20055;-69
2022/06/19 11:34:43;;;;;;;10.10;2.25;;;;;;;25.42;36.90;98364.72;5074903;28;20048;-70
2022/06/19 11:37:16;;;;;;;6.13;1.92;;;;;;;25.34;37.38;98366.22;5075096;28;20054;-74
2022/06/19 11:39:46;;;;;;;5.32;2.00;;;;;;;25.46;37.57;98365.38;5074949;28;20178;-69
2022/06/19 11:42:40;;;;;;;5.63;2.63;;;;;;;25.48;37.19;98377.13;5074965;28;20052;-70
2022/06/19 11:45:13;;;;;;;16.48;2.33;;;;;;;25.49;37.37;98355.13;5074342;28;20431;-69
2022/06/19 11:47:58;;;;;;;7.28;1.88;;;;;;;25.44;37.43;98361.41;5074936;28;20052;-69
2022/06/19 11:50:35;;;;;;;7.25;2.08;;;;;;;25.33;37.68;98375.22;5075085;28;20068;-70
2022/06/19 11:53:05;;;;;;;9.13;2.45;;;;;;;25.39;37.78;98351.41;5073748;28;20072;-68
2022/06/19 11:55:38;;;;;;;7.07;1.90;;;;;;;25.34;37.87;98363.38;5074877;28;20075;-68
2022/06/19 11:58:29;;;;;;;4.95;2.40;;;;;;;25.41;37.50;98373.72;5074710;28;20050;-69
2022/06/19 12:01:18;;;;;;;4.22;2.00;;;;;;;25.51;37.72;98361.16;5074751;28;20045;-70
2022/06/19 12:03:53;;;;;;;7.28;2.33;;;;;;;25.61;37.55;98357.91;5090765;28;20075;-70
2022/06/19 12:06:45;;;;;;;4.38;2.13;;;;;;;25.69;37.69;98350.72;5074458;28;20048;-70
2022/06/19 12:09:40;;;;;;;5.78;2.72;;;;;;;25.94;37.53;98336.38;5074582;28;20052;-70
2022/06/19 12:12:10;;;;;;;5.05;1.95;;;;;;;26.11;36.92;98326.34;5074343;28;20055;-70